Time;durP1;ratioP1;P1;durP2;ratioP2;P2;SDS_P1;SDS_P2;PMS_P1;PMS_P2;Temp;Humidity;BMP_temperature;BMP_pressure;BME280_temperature;BME280_humidity;BME280_pressure;Samples;Min_cycle;Max_cycle;Signal;HPM_P1;HPM_P2
2022/08/24 00:02:16;;;;;;;2.38;2.28;;;;;;;;;;5066839;28;20214;-71
2022/08/24 00:04:43;;;;;;;2.40;2.30;;;;;;;;;;5055206;28;20688;-71
2022/08/24 00:07:10;;;;;;;2.53;2.33;;;;;;;;;;5054710;28;20210;-72
2022/08/24 00:09:37;;;;;;;2.00;2.00;;;;;;;;;;5064263;28;20203;-72
2022/08/24 00:12:05;;;;;;;2.58;2.42;;;;;;;;;;5063926;28;20210;-71
2022/08/24 00:14:33;;;;;;;2.58;2.40;;;;;;;;;;5048872;28;20214;-71
2022/08/24 00:17:00;;;;;;;2.50;2.40;;;;;;;;;;5047396;28;20292;-72
2022/08/24 00:19:28;;;;;;;2.65;2.55;;;;;;;;;;5050091;28;20571;-72
2022/08/24 00:21:55;;;;;;;2.30;2.20;;;;;;;;;;5057870;28;20234;-72
2022/08/24 00:24:22;;;;;;;2.17;2.08;;;;;;;;;;5066978;28;20226;-72
2022/08/24 00:26:49;;;;;;;2.08;2.08;;;;;;;;;;5066383;28;20211;-71
2022/08/24 00:29:17;;;;;;;2.50;2.30;;;;;;;;;;5065084;28;20211;-72
2022/08/24 00:31:46;;;;;;;3.40;2.72;;;;;;;;;;5047968;28;20326;-70
2022/08/24 00:34:13;;;;;;;2.47;2.28;;;;;;;;;;5047466;28;20214;-72
2022/08/24 00:36:40;;;;;;;2.30;2.15;;;;;;;;;;5053465;28;20207;-72
2022/08/24 00:39:08;;;;;;;2.17;2.08;;;;;;;;;;5056655;28;20226;-71
2022/08/24 00:41:38;;;;;;;3.13;2.80;;;;;;;;;;5047346;28;20796;-71
2022/08/24 00:44:05;;;;;;;2.47;2.40;;;;;;;;;;5048547;28;20211;-72
2022/08/24 00:46:35;;;;;;;2.22;2.00;;;;;;;;;;5048709;28;20207;-71
2022/08/24 00:49:05;;;;;;;2.25;2.15;;;;;;;;;;5047456;28;20229;-71
2022/08/24 00:51:36;;;;;;;2.70;2.03;;;;;;;;;;5047227;28;20504;-71
2022/08/24 00:54:05;;;;;;;2.33;2.22;;;;;;;;;;5060645;28;20199;-71
2022/08/24 00:56:35;;;;;;;2.00;1.90;;;;;;;;;;5067184;28;20264;-72
2022/08/24 00:59:04;;;;;;;1.50;1.50;;;;;;;;;;5066673;28;20297;-71
2022/08/24 01:01:32;;;;;;;1.90;1.88;;;;;;;;;;5066536;28;20257;-71
2022/08/24 01:03:59;;;;;;;1.88;1.70;;;;;;;;;;5054216;28;20430;-71
2022/08/24 01:06:28;;;;;;;2.08;1.98;;;;;;;;;;5067609;28;20361;-72
2022/08/24 01:08:55;;;;;;;2.38;1.90;;;;;;;;;;5066168;28;20207;-71
2022/08/24 01:11:24;;;;;;;1.60;1.60;;;;;;;;;;5066327;28;20218;-71
2022/08/24 01:13:53;;;;;;;2.00;1.90;;;;;;;;;;5064615;28;20297;-71
2022/08/24 01:19:02;;;;;;;1.77;1.77;;;;;;;;;;5052637;28;20203;-72
2022/08/24 01:21:32;;;;;;;2.08;1.98;;;;;;;;;;5047390;28;20239;-72
2022/08/24 01:24:01;;;;;;;2.17;2.08;;;;;;;;;;5059502;28;20207;-72
2022/08/24 01:26:32;;;;;;;1.70;1.67;;;;;;;;;;5047058;28;20315;-72
2022/08/24 01:29:02;;;;;;;1.75;1.65;;;;;;;;;;5049528;28;20257;-72
2022/08/24 01:31:29;;;;;;;1.88;1.88;;;;;;;;;;5064799;28;20387;-72
2022/08/24 01:33:56;;;;;;;1.60;1.52;;;;;;;;;;5070327;28;20215;-73
2022/08/24 01:36:27;;;;;;;2.55;1.90;;;;;;;;;;5069960;28;20210;-72
2022/08/24 01:38:54;;;;;;;2.05;1.95;;;;;;;;;;5069046;28;20579;-72
2022/08/24 01:41:23;;;;;;;1.60;1.60;;;;;;;;;;5063455;28;20200;-72
2022/08/24 01:43:50;;;;;;;4.30;2.10;;;;;;;;;;5051333;28;20227;-72
2022/08/24 01:46:17;;;;;;;1.80;1.70;;;;;;;;;;5059476;28;20281;-73
2022/08/24 01:48:44;;;;;;;1.80;1.80;;;;;;;;;;5050081;28;20356;-71
2022/08/24 01:51:11;;;;;;;1.98;1.88;;;;;;;;;;5050331;28;20211;-72
2022/08/24 01:53:38;;;;;;;3.03;1.85;;;;;;;;;;5049740;28;20572;-72
2022/08/24 01:56:05;;;;;;;1.55;1.55;;;;;;;;;;5067749;28;20245;-72
2022/08/24 01:58:34;;;;;;;1.33;1.33;;;;;;;;;;5068422;28;20310;-72
2022/08/24 02:01:01;;;;;;;1.77;1.75;;;;;;;;;;5061639;28;20200;-72
2022/08/24 02:03:28;;;;;;;1.80;1.80;;;;;;;;;;5051549;28;20199;-72
2022/08/24 02:05:55;;;;;;;1.95;1.85;;;;;;;;;;5058656;28;20235;-72
2022/08/24 02:08:22;;;;;;;1.85;1.67;;;;;;;;;;5066009;28;20566;-74
2022/08/24 02:10:49;;;;;;;1.98;1.60;;;;;;;;;;5069591;28;20215;-72
2022/08/24 02:13:16;;;;;;;1.40;1.40;;;;;;;;;;5065578;28;20233;-72
2022/08/24 02:15:44;;;;;;;1.50;1.50;;;;;;;;;;5050143;28;20211;-72
2022/08/24 02:18:12;;;;;;;1.38;1.38;;;;;;;;;;5049418;28;20220;-73
2022/08/24 02:20:39;;;;;;;1.40;1.40;;;;;;;;;;5057389;28;20967;-73
2022/08/24 02:23:07;;;;;;;1.80;1.70;;;;;;;;;;5069188;28;20211;-72
2022/08/24 02:25:35;;;;;;;1.27;1.27;;;;;;;;;;5067779;28;20227;-72
2022/08/24 02:28:02;;;;;;;2.05;1.60;;;;;;;;;;5051008;28;20203;-72
2022/08/24 02:30:30;;;;;;;1.50;1.50;;;;;;;;;;5051056;28;20211;-72
2022/08/24 02:32:58;;;;;;;1.50;1.40;;;;;;;;;;5050328;28;20701;-72
2022/08/24 02:35:26;;;;;;;1.50;1.40;;;;;;;;;;5055629;28;20235;-72
2022/08/24 02:37:53;;;;;;;1.40;1.40;;;;;;;;;;5068151;28;20211;-72
2022/08/24 02:40:20;;;;;;;1.45;1.35;;;;;;;;;;5049287;28;20233;-72
2022/08/24 02:42:47;;;;;;;1.55;1.52;;;;;;;;;;5049644;28;20573;-72
2022/08/24 02:45:15;;;;;;;1.50;1.48;;;;;;;;;;5052205;28;20252;-72
2022/08/24 02:47:42;;;;;;;1.45;1.45;;;;;;;;;;5061493;28;20221;-72
2022/08/24 02:50:12;;;;;;;1.13;1.13;;;;;;;;;;5068514;28;20203;-72
2022/08/24 02:52:39;;;;;;;1.50;1.50;;;;;;;;;;5053654;28;20208;-72
2022/08/24 02:55:07;;;;;;;1.20;1.20;;;;;;;;;;5048382;28;20665;-73
2022/08/24 02:57:34;;;;;;;1.27;1.27;;;;;;;;;;5062991;28;20214;-72
2022/08/24 03:00:01;;;;;;;1.45;1.38;;;;;;;;;;5048782;28;20207;-72
2022/08/24 03:02:28;;;;;;;1.42;1.42;;;;;;;;;;5048618;28;20203;-72
2022/08/24 03:04:55;;;;;;;1.38;1.35;;;;;;;;;;5061591;28;20214;-72
2022/08/24 03:07:24;;;;;;;1.40;1.40;;;;;;;;;;5068566;28;20559;-72
2022/08/24 03:09:51;;;;;;;1.70;1.60;;;;;;;;;;5049184;28;20265;-73
2022/08/24 03:12:18;;;;;;;1.50;1.40;;;;;;;;;;5049145;28;20252;-72
2022/08/24 03:14:45;;;;;;;1.42;1.38;;;;;;;;;;5055450;28;20226;-72
2022/08/24 03:17:12;;;;;;;1.58;1.48;;;;;;;;;;5067587;28;20236;-72
2022/08/24 03:19:40;;;;;;;1.50;1.50;;;;;;;;;;5062461;28;20219;-72
2022/08/24 03:22:07;;;;;;;1.30;1.30;;;;;;;;;;5049613;28;20658;-72
2022/08/24 03:24:35;;;;;;;2.83;1.65;;;;;;;;;;5051817;28;20594;-73
2022/08/24 03:27:05;;;;;;;1.25;1.25;;;;;;;;;;5049958;28;20226;-73
2022/08/24 03:29:33;;;;;;;1.00;1.00;;;;;;;;;;5066225;28;20214;-72
2022/08/24 03:32:01;;;;;;;1.13;1.13;;;;;;;;;;5066237;28;20215;-72
2022/08/24 03:34:28;;;;;;;1.20;1.17;;;;;;;;;;5064236;28;20203;-72
2022/08/24 03:36:55;;;;;;;2.75;1.25;;;;;;;;;;5056024;28;20211;-72
2022/08/24 03:39:22;;;;;;;1.55;1.48;;;;;;;;;;5047957;28;20220;-72
2022/08/24 03:41:50;;;;;;;1.35;1.35;;;;;;;;;;5048102;28;20414;-72
2022/08/24 03:44:17;;;;;;;1.75;1.67;;;;;;;;;;5048265;28;20214;-70
2022/08/24 03:46:45;;;;;;;1.55;1.25;;;;;;;;;;5063958;28;20245;-73
2022/08/24 03:49:13;;;;;;;1.50;1.40;;;;;;;;;;5049308;28;20211;-70
2022/08/24 03:51:40;;;;;;;1.40;1.40;;;;;;;;;;5049059;28;20196;-70
2022/08/24 03:54:09;;;;;;;1.23;1.23;;;;;;;;;;5059755;28;20210;-70
2022/08/24 03:56:36;;;;;;;1.70;1.50;;;;;;;;;;5067730;28;20191;-71
2022/08/24 03:59:06;;;;;;;1.30;1.30;;;;;;;;;;5067571;28;20207;-71
2022/08/24 04:01:33;;;;;;;1.45;1.45;;;;;;;;;;5055794;28;20677;-69
2022/08/24 04:04:00;;;;;;;1.38;1.30;;;;;;;;;;5060070;28;20670;-70
2022/08/24 04:06:27;;;;;;;1.45;1.40;;;;;;;;;;5061631;28;20298;-70
2022/08/24 04:08:55;;;;;;;1.20;1.20;;;;;;;;;;5067309;28;20229;-70
2022/08/24 04:11:23;;;;;;;1.55;1.30;;;;;;;;;;5066180;28;20207;-69
2022/08/24 04:13:52;;;;;;;1.40;1.40;;;;;;;;;;5066205;28;20290;-69
2022/08/24 04:16:21;;;;;;;1.38;1.27;;;;;;;;;;5065794;28;20207;-69
2022/08/24 04:18:48;;;;;;;1.27;1.27;;;;;;;;;;5058610;28;20223;-69
2022/08/24 04:21:16;;;;;;;1.30;1.30;;;;;;;;;;5061748;28;20239;-69
2022/08/24 04:23:43;;;;;;;1.42;1.42;;;;;;;;;;5053679;28;20203;-64
2022/08/24 04:26:10;;;;;;;1.52;1.42;;;;;;;;;;5054276;28;20234;-69
2022/08/24 04:28:38;;;;;;;1.30;1.30;;;;;;;;;;5055653;28;20264;-69
2022/08/24 04:31:05;;;;;;;1.50;1.20;;;;;;;;;;5068705;28;20211;-70
2022/08/24 04:33:33;;;;;;;2.85;1.15;;;;;;;;;;5060226;28;20204;-69
2022/08/24 04:36:01;;;;;;;1.30;1.30;;;;;;;;;;5048696;28;20226;-69
2022/08/24 04:38:29;;;;;;;2.53;1.60;;;;;;;;;;5060363;28;20215;-68
2022/08/24 04:40:56;;;;;;;1.10;1.10;;;;;;;;;;5048473;28;20215;-68
2022/08/24 04:43:25;;;;;;;1.23;1.23;;;;;;;;;;5048447;28;20211;-68
2022/08/24 04:45:52;;;;;;;1.55;1.55;;;;;;;;;;5048150;28;20231;-68
2022/08/24 04:48:19;;;;;;;1.23;1.23;;;;;;;;;;5058451;28;20195;-68
2022/08/24 04:50:48;;;;;;;1.23;1.15;;;;;;;;;;5048690;28;20834;-68
2022/08/24 04:53:16;;;;;;;1.25;1.15;;;;;;;;;;5060314;28;20208;-70
2022/08/24 04:55:44;;;;;;;1.30;1.30;;;;;;;;;;5058535;28;20579;-67
2022/08/24 04:58:11;;;;;;;1.05;1.05;;;;;;;;;;5051060;28;20207;-67
2022/08/24 05:00:38;;;;;;;1.60;1.50;;;;;;;;;;5048381;28;20208;-69
2022/08/24 05:03:06;;;;;;;1.50;1.40;;;;;;;;;;5055268;28;20203;-67
2022/08/24 05:05:33;;;;;;;1.02;1.02;;;;;;;;;;5050141;28;20216;-67
2022/08/24 05:08:02;;;;;;;2.78;1.38;;;;;;;;;;5056938;28;20215;-70
2022/08/24 05:10:29;;;;;;;1.25;1.25;;;;;;;;;;5071328;28;20264;-68
2022/08/24 05:12:56;;;;;;;1.45;1.45;;;;;;;;;;5071149;28;20191;-67
2022/08/24 05:15:23;;;;;;;1.00;1.00;;;;;;;;;;5070982;28;20877;-67
2022/08/24 05:17:50;;;;;;;1.20;1.20;;;;;;;;;;5067096;28;20234;-69
2022/08/24 05:20:17;;;;;;;2.40;1.42;;;;;;;;;;5052202;28;20559;-67
2022/08/24 05:22:45;;;;;;;1.20;1.20;;;;;;;;;;5054059;28;20243;-68
2022/08/24 05:25:13;;;;;;;4.03;1.02;;;;;;;;;;5070986;28;20232;-68
2022/08/24 05:27:40;;;;;;;1.00;1.00;;;;;;;;;;5070662;28;20233;-67
2022/08/24 05:30:08;;;;;;;1.55;1.17;;;;;;;;;;5070557;28;20260;-67
2022/08/24 05:32:35;;;;;;;3.13;1.00;;;;;;;;;;5070107;28;20526;-67
2022/08/24 05:35:03;;;;;;;1.08;1.08;;;;;;;;;;5071160;28;20268;-67
2022/08/24 05:37:30;;;;;;;0.88;0.88;;;;;;;;;;5056269;28;20207;-67
2022/08/24 05:39:57;;;;;;;1.35;1.25;;;;;;;;;;5066367;28;20214;-67
2022/08/24 05:42:26;;;;;;;3.33;1.20;;;;;;;;;;5071026;28;20215;-67
2022/08/24 05:44:53;;;;;;;1.20;1.10;;;;;;;;;;5064027;28;20215;-68
2022/08/24 05:47:20;;;;;;;1.15;1.05;;;;;;;;;;5063058;28;20285;-68
2022/08/24 05:49:47;;;;;;;1.20;1.20;;;;;;;;;;5061023;28;20752;-69
2022/08/24 05:52:14;;;;;;;1.20;1.20;;;;;;;;;;5057481;28;20204;-68
2022/08/24 05:54:41;;;;;;;1.45;1.08;;;;;;;;;;5059725;28;20202;-68
2022/08/24 05:57:08;;;;;;;1.08;1.08;;;;;;;;;;5059158;28;20203;-71
2022/08/24 05:59:37;;;;;;;1.23;1.13;;;;;;;;;;5055195;28;20207;-70
2022/08/24 06:02:04;;;;;;;0.98;0.98;;;;;;;;;;5051009;28;20287;-72
2022/08/24 06:04:31;;;;;;;2.15;1.17;;;;;;;;;;5050747;28;20207;-73
2022/08/24 06:06:58;;;;;;;1.08;1.08;;;;;;;;;;5050738;28;20227;-72
2022/08/24 06:09:25;;;;;;;0.98;0.98;;;;;;;;;;5052733;28;20208;-70
2022/08/24 06:11:52;;;;;;;1.02;1.00;;;;;;;;;;5070243;28;20214;-71
2022/08/24 06:14:19;;;;;;;1.10;1.10;;;;;;;;;;5061982;28;20673;-68
2022/08/24 06:16:48;;;;;;;1.02;1.02;;;;;;;;;;5069120;28;20681;-70
2022/08/24 06:19:16;;;;;;;0.88;0.80;;;;;;;;;;5070496;28;20210;-69
2022/08/24 06:21:45;;;;;;;0.80;0.80;;;;;;;;;;5051662;28;20236;-69
2022/08/24 06:24:14;;;;;;;1.33;1.00;;;;;;;;;;5051438;28;20334;-70
2022/08/24 06:29:26;;;;;;;1.00;1.00;;;;;;;;;;5060588;28;20210;-69
2022/08/24 06:31:55;;;;;;;1.27;1.10;;;;;;;;;;5069490;28;20222;-70
2022/08/24 06:34:24;;;;;;;0.90;0.90;;;;;;;;;;5066329;28;20305;-70
2022/08/24 06:36:51;;;;;;;1.10;1.10;;;;;;;;;;5070058;28;20210;-68
2022/08/24 06:39:18;;;;;;;1.17;1.17;;;;;;;;;;5060470;28;20207;-69
2022/08/24 06:41:45;;;;;;;1.00;1.00;;;;;;;;;;5057716;28;20214;-70
2022/08/24 06:44:12;;;;;;;0.93;0.93;;;;;;;;;;5069817;28;20219;-71
2022/08/24 06:46:40;;;;;;;1.08;1.08;;;;;;;;;;5065545;28;20280;-70
2022/08/24 06:49:08;;;;;;;1.27;1.17;;;;;;;;;;5062260;28;20226;-71
2022/08/24 06:51:35;;;;;;;0.90;0.90;;;;;;;;;;5063851;28;20203;-69
2022/08/24 06:54:02;;;;;;;1.77;1.23;;;;;;;;;;5069096;28;20586;-69
2022/08/24 06:56:29;;;;;;;1.05;1.05;;;;;;;;;;5066501;28;20207;-69
2022/08/24 06:58:56;;;;;;;0.90;0.90;;;;;;;;;;5049263;28;20208;-70
2022/08/24 07:01:24;;;;;;;1.13;1.10;;;;;;;;;;5053320;28;20668;-72
2022/08/24 07:03:51;;;;;;;1.10;1.10;;;;;;;;;;5064831;28;20207;-69
2022/08/24 07:06:20;;;;;;;1.00;1.00;;;;;;;;;;5063424;28;20208;-70
2022/08/24 07:08:47;;;;;;;0.98;0.98;;;;;;;;;;5047143;28;20222;-70
2022/08/24 07:11:16;;;;;;;1.17;1.17;;;;;;;;;;5066461;28;20665;-69
2022/08/24 07:13:43;;;;;;;1.08;1.08;;;;;;;;;;5049965;28;20658;-69
2022/08/24 07:16:11;;;;;;;1.08;0.82;;;;;;;;;;5048845;28;20215;-70
2022/08/24 07:18:38;;;;;;;1.00;1.00;;;;;;;;;;5048539;28;20295;-71
2022/08/24 07:21:05;;;;;;;1.30;1.20;;;;;;;;;;5065670;28;20270;-69
2022/08/24 07:23:34;;;;;;;1.20;1.20;;;;;;;;;;5052279;28;20211;-69
2022/08/24 07:26:05;;;;;;;1.17;1.13;;;;;;;;;;5048930;28;20254;-69
2022/08/24 07:28:35;;;;;;;0.93;0.93;;;;;;;;;;5065637;28;20246;-70
2022/08/24 07:31:03;;;;;;;1.10;1.10;;;;;;;;;;5067726;28;20264;-70
2022/08/24 07:33:30;;;;;;;1.10;1.10;;;;;;;;;;5051232;28;20231;-70
2022/08/24 07:35:58;;;;;;;1.50;1.13;;;;;;;;;;5052351;28;20253;-70
2022/08/24 07:38:25;;;;;;;1.17;1.10;;;;;;;;;;5068613;28;20221;-69
2022/08/24 07:40:53;;;;;;;1.10;1.10;;;;;;;;;;5065518;28;20256;-70
2022/08/24 07:43:20;;;;;;;3.50;1.05;;;;;;;;;;5049219;28;20257;-70
2022/08/24 07:45:49;;;;;;;1.08;1.08;;;;;;;;;;5048951;28;20289;-69
2022/08/24 07:48:16;;;;;;;1.20;1.10;;;;;;;;;;5048986;28;20235;-71
2022/08/24 07:50:44;;;;;;;1.20;1.20;;;;;;;;;;5055485;28;20220;-69
2022/08/24 07:53:11;;;;;;;1.08;1.08;;;;;;;;;;5048786;28;20211;-69
2022/08/24 07:55:38;;;;;;;1.30;1.30;;;;;;;;;;5059493;28;20700;-69
2022/08/24 07:58:06;;;;;;;1.17;1.17;;;;;;;;;;5068734;28;20678;-70
2022/08/24 08:00:34;;;;;;;1.02;1.02;;;;;;;;;;5068402;28;20619;-71
2022/08/24 08:03:03;;;;;;;1.20;1.20;;;;;;;;;;5053200;28;20673;-70
2022/08/24 08:05:30;;;;;;;1.02;1.02;;;;;;;;;;5048727;28;20265;-71
2022/08/24 08:07:57;;;;;;;1.02;1.02;;;;;;;;;;5044430;28;20235;-71
2022/08/24 08:10:25;;;;;;;1.25;1.25;;;;;;;;;;5054252;28;20210;-72
2022/08/24 08:12:52;;;;;;;1.20;1.20;;;;;;;;;;5059558;28;20260;-71
2022/08/24 08:15:20;;;;;;;1.10;1.00;;;;;;;;;;5068064;28;20210;-70
2022/08/24 08:17:47;;;;;;;1.33;1.23;;;;;;;;;;5062394;28;20226;-71
2022/08/24 08:20:14;;;;;;;0.95;0.95;;;;;;;;;;5048430;28;20677;-71
2022/08/24 08:25:26;;;;;;;1.00;1.00;;;;;;;;;;5048346;28;20276;-71
2022/08/24 08:27:53;;;;;;;1.10;1.10;;;;;;;;;;5048073;28;20228;-71
2022/08/24 08:30:22;;;;;;;0.90;0.90;;;;;;;;;;5048213;28;20670;-71
2022/08/24 08:32:49;;;;;;;1.98;1.30;;;;;;;;;;5056060;28;20206;-71
2022/08/24 08:35:18;;;;;;;1.00;1.00;;;;;;;;;;5068353;28;20203;-71
2022/08/24 08:37:45;;;;;;;0.95;0.95;;;;;;;;;;5068969;28;20227;-71
2022/08/24 08:40:18;;;;;;;1.30;1.30;;;;;;;;;;5064697;28;20227;-71
2022/08/24 08:43:03;;;;;;;1.10;1.10;;;;;;;;;;5056776;28;20708;-71
2022/08/24 08:45:45;;;;;;;1.33;1.33;;;;;;;;;;5064154;28;20215;-71
2022/08/24 08:48:27;;;;;;;1.67;1.50;;;;;;;;;;5050397;28;20302;-71
2022/08/24 08:51:12;;;;;;;1.13;1.13;;;;;;;;;;5052205;28;20214;-71
2022/08/24 08:54:01;;;;;;;1.05;1.05;;;;;;;;;;5033125;28;20215;-70
2022/08/24 08:56:34;;;;;;;4.47;1.23;;;;;;;;;;5052034;28;20294;-71
2022/08/24 08:59:06;;;;;;;1.25;1.25;;;;;;;;;;5051922;28;20235;-69
2022/08/24 09:01:38;;;;;;;1.40;1.40;;;;;;;;;;5054692;28;20215;-70
2022/08/24 09:04:11;;;;;;;1.33;1.33;;;;;;;;;;5057789;28;20332;-70
2022/08/24 09:06:48;;;;;;;1.20;1.20;;;;;;;;;;5053096;28;20561;-70
2022/08/24 09:09:33;;;;;;;1.45;1.40;;;;;;;;;;5071513;28;20267;-71
2022/08/24 09:12:07;;;;;;;1.13;1.13;;;;;;;;;;5059939;28;20210;-71
2022/08/24 09:14:48;;;;;;;1.50;1.50;;;;;;;;;;5060309;28;20235;-71
2022/08/24 09:17:23;;;;;;;1.20;1.20;;;;;;;;;;5060252;28;20300;-72
2022/08/24 09:19:59;;;;;;;1.25;1.25;;;;;;;;;;5051241;28;20214;-71
2022/08/24 09:22:26;;;;;;;1.70;1.27;;;;;;;;;;5051435;28;20756;-71
2022/08/24 09:25:03;;;;;;;1.20;1.20;;;;;;;;;;5051509;28;20208;-71
2022/08/24 09:27:36;;;;;;;0.93;0.93;;;;;;;;;;5051362;28;20235;-71
2022/08/24 09:30:08;;;;;;;1.17;1.08;;;;;;;;;;5059745;28;20574;-71
2022/08/24 09:32:38;;;;;;;1.13;1.02;;;;;;;;;;5055229;28;20663;-71
2022/08/24 09:35:08;;;;;;;0.90;0.90;;;;;;;;;;5057740;28;20207;-71
2022/08/24 09:37:38;;;;;;;1.05;1.00;;;;;;;;;;5069489;28;20202;-71
2022/08/24 09:40:17;;;;;;;1.20;1.20;;;;;;;;;;5061372;28;20577;-71
2022/08/24 09:43:05;;;;;;;0.90;0.90;;;;;;;;;;5051713;28;20281;-71
2022/08/24 09:45:44;;;;;;;1.05;1.00;;;;;;;;;;5052703;28;20215;-72
2022/08/24 09:48:25;;;;;;;2.22;1.15;;;;;;;;;;5062024;28;20226;-72
2022/08/24 09:51:00;;;;;;;1.17;1.17;;;;;;;;;;5069992;28;20940;-72
2022/08/24 09:53:47;;;;;;;1.23;1.23;;;;;;;;;;5065757;28;20226;-71
2022/08/24 09:56:25;;;;;;;1.95;1.15;;;;;;;;;;5063289;28;20239;-71
2022/08/24 09:59:04;;;;;;;1.63;1.52;;;;;;;;;;5059814;28;20214;-71
2022/08/24 10:01:35;;;;;;;3.45;1.27;;;;;;;;;;5062129;28;20256;-71
2022/08/24 10:04:12;;;;;;;0.90;0.90;;;;;;;;;;5050985;28;20203;-72
2022/08/24 10:06:44;;;;;;;1.20;1.20;;;;;;;;;;5051032;28;20328;-71
2022/08/24 10:09:27;;;;;;;0.90;0.90;;;;;;;;;;5050492;28;20255;-72
2022/08/24 10:11:58;;;;;;;1.45;1.38;;;;;;;;;;5053350;28;20623;-70
2022/08/24 10:14:36;;;;;;;1.00;1.00;;;;;;;;;;5059164;28;20212;-72
2022/08/24 10:17:10;;;;;;;1.20;1.20;;;;;;;;;;5051996;28;20234;-72
2022/08/24 10:19:46;;;;;;;1.17;1.17;;;;;;;;;;5063272;28;20235;-72
2022/08/24 10:22:18;;;;;;;1.15;1.15;;;;;;;;;;5068421;28;20310;-72
2022/08/24 10:24:55;;;;;;;1.30;1.20;;;;;;;;;;5070264;28;20265;-72
2022/08/24 10:27:40;;;;;;;1.40;1.40;;;;;;;;;;5070709;28;20222;-71
2022/08/24 10:30:25;;;;;;;1.20;1.20;;;;;;;;;;5054198;28;20230;-71
2022/08/24 10:32:56;;;;;;;1.00;1.00;;;;;;;;;;5055758;28;20624;-72
2022/08/24 10:35:26;;;;;;;1.35;1.35;;;;;;;;;;5070312;28;20215;-71
2022/08/24 10:41:05;;;;;;;1.25;1.25;;;;;;;;;;5050484;28;20222;-71
2022/08/24 10:43:47;;;;;;;1.17;1.15;;;;;;;;;;5056535;28;20211;-71
2022/08/24 10:46:33;;;;;;;1.00;1.00;;;;;;;;;;5066105;28;20211;-71
2022/08/24 10:49:14;;;;;;;1.20;1.20;;;;;;;;;;5060412;28;20235;-71
2022/08/24 10:51:50;;;;;;;0.88;0.88;;;;;;;;;;5049281;28;20580;-71
2022/08/24 10:54:19;;;;;;;1.33;1.33;;;;;;;;;;5051062;28;20207;-71
2022/08/24 10:56:52;;;;;;;1.10;1.10;;;;;;;;;;5050723;28;20301;-71
2022/08/24 10:59:23;;;;;;;1.00;1.00;;;;;;;;;;5050045;28;20559;-69
2022/08/24 11:02:01;;;;;;;1.20;1.10;;;;;;;;;;5061715;28;20234;-65
2022/08/24 11:04:32;;;;;;;1.10;1.10;;;;;;;;;;5059039;28;20677;-68
2022/08/24 11:07:10;;;;;;;1.40;1.40;;;;;;;;;;5056300;28;20211;-67
2022/08/24 11:09:45;;;;;;;1.05;1.05;;;;;;;;;;5052163;28;20449;-66
2022/08/24 11:12:17;;;;;;;1.30;1.30;;;;;;;;;;5058954;28;20202;-67
2022/08/24 11:14:47;;;;;;;1.17;1.17;;;;;;;;;;5059037;28;20200;-67
2022/08/24 11:17:15;;;;;;;1.02;1.02;;;;;;;;;;5052404;28;20235;-66
2022/08/24 11:19:44;;;;;;;0.80;0.80;;;;;;;;;;5069800;28;20376;-66
2022/08/24 11:22:24;;;;;;;1.15;1.15;;;;;;;;;;5063748;28;20226;-65
2022/08/24 11:24:53;;;;;;;1.15;1.15;;;;;;;;;;5061676;28;20690;-66
2022/08/24 11:27:23;;;;;;;1.40;1.20;;;;;;;;;;5049661;28;20557;-68
2022/08/24 11:30:05;;;;;;;1.00;1.00;;;;;;;;;;5049257;28;20231;-68
2022/08/24 11:32:37;;;;;;;1.10;1.10;;;;;;;;;;5049705;28;20206;-70
2022/08/24 11:35:08;;;;;;;1.90;1.17;;;;;;;;;;5054088;28;20689;-71
2022/08/24 11:37:36;;;;;;;1.15;1.15;;;;;;;;;;5061443;28;20246;-70
2022/08/24 11:40:04;;;;;;;1.15;1.05;;;;;;;;;;5058916;28;20199;-71
2022/08/24 11:42:43;;;;;;;0.98;0.98;;;;;;;;;;5049343;28;20674;-71
2022/08/24 11:45:13;;;;;;;1.00;1.00;;;;;;;;;;5053974;28;20252;-71
2022/08/24 11:47:46;;;;;;;0.90;0.90;;;;;;;;;;5069179;28;20620;-71
2022/08/24 11:50:20;;;;;;;1.13;0.98;;;;;;;;;;5068971;28;20636;-70
2022/08/24 11:52:53;;;;;;;0.70;0.70;;;;;;;;;;5068983;28;20206;-71
2022/08/24 11:55:22;;;;;;;1.10;1.10;;;;;;;;;;5066457;28;20206;-70
2022/08/24 11:57:53;;;;;;;1.25;1.08;;;;;;;;;;5068695;28;20214;-71
2022/08/24 12:00:22;;;;;;;1.38;1.38;;;;;;;;;;5049517;28;20610;-71
2022/08/24 12:02:54;;;;;;;1.58;1.48;;;;;;;;;;5046021;28;20355;-70
2022/08/24 12:05:26;;;;;;;1.38;1.27;;;;;;;;;;5055182;28;20202;-69
2022/08/24 12:08:00;;;;;;;1.20;1.20;;;;;;;;;;5068476;28;20210;-70
2022/08/24 12:10:31;;;;;;;1.05;1.05;;;;;;;;;;5067951;28;20240;-70
2022/08/24 12:13:02;;;;;;;1.35;1.35;;;;;;;;;;5053582;28;20206;-70
2022/08/24 12:15:36;;;;;;;1.10;1.10;;;;;;;;;;5050900;28;20733;-71
2022/08/24 12:18:05;;;;;;;2.40;1.70;;;;;;;;;;5048309;28;20249;-71
2022/08/24 12:20:35;;;;;;;1.23;1.23;;;;;;;;;;5048169;28;20219;-69
2022/08/24 12:23:05;;;;;;;1.40;1.30;;;;;;;;;;5066306;28;20194;-69
2022/08/24 12:28:24;;;;;;;1.65;1.55;;;;;;;;;;5048059;28;20222;-72
2022/08/24 12:30:52;;;;;;;1.67;1.58;;;;;;;;;;5048426;28;20219;-74
2022/08/24 12:33:22;;;;;;;1.33;1.33;;;;;;;;;;5059367;28;20206;-68
2022/08/24 12:35:53;;;;;;;1.42;1.40;;;;;;;;;;5056137;28;20207;-68
2022/08/24 12:38:23;;;;;;;1.38;1.35;;;;;;;;;;5048590;28;20211;-69
2022/08/24 12:40:55;;;;;;;1.30;1.27;;;;;;;;;;5053028;28;20273;-68
2022/08/24 12:43:26;;;;;;;1.40;1.40;;;;;;;;;;5057628;28;20216;-68
2022/08/24 12:45:55;;;;;;;1.70;1.40;;;;;;;;;;5054522;28;20771;-71
2022/08/24 12:48:24;;;;;;;1.30;1.30;;;;;;;;;;5057611;28;20704;-71
2022/08/24 12:51:00;;;;;;;3.53;1.27;;;;;;;;;;5067020;28;20218;-70
2022/08/24 12:53:42;;;;;;;1.15;1.10;;;;;;;;;;5042754;28;20272;-70
2022/08/24 12:56:26;;;;;;;1.33;1.30;;;;;;;;;;5062992;28;20660;-70
2022/08/24 12:59:06;;;;;;;1.55;1.45;;;;;;;;;;5057783;28;20264;-70
2022/08/24 13:01:34;;;;;;;1.35;1.35;;;;;;;;;;5068503;28;20210;-70
2022/08/24 13:04:04;;;;;;;3.25;3.00;;;;;;;;;;5067042;28;20635;-71
2022/08/24 13:06:39;;;;;;;3.45;3.15;;;;;;;;;;5067954;28;20211;-70
2022/08/24 13:09:09;;;;;;;1.23;1.23;;;;;;;;;;5058619;28;20218;-70
2022/08/24 13:11:36;;;;;;;1.45;1.40;;;;;;;;;;5067683;28;20206;-69
2022/08/24 13:14:16;;;;;;;1.75;1.60;;;;;;;;;;5059410;28;20286;-69
2022/08/24 13:16:50;;;;;;;1.67;1.67;;;;;;;;;;5048228;28;20315;-69
2022/08/24 13:19:18;;;;;;;1.58;1.58;;;;;;;;;;5046829;28;20207;-70
2022/08/24 13:21:49;;;;;;;2.58;2.38;;;;;;;;;;5047923;28;20243;-71
2022/08/24 13:24:31;;;;;;;1.30;1.30;;;;;;;;;;5048073;28;20234;-73
2022/08/24 13:26:59;;;;;;;1.70;1.70;;;;;;;;;;5053001;28;20202;-74
2022/08/24 13:29:27;;;;;;;1.15;1.13;;;;;;;;;;5051669;28;20288;-69
2022/08/24 13:31:56;;;;;;;2.33;1.15;;;;;;;;;;5057321;28;20211;-69
2022/08/24 13:34:44;;;;;;;1.52;1.52;;;;;;;;;;5070539;28;20202;-71
2022/08/24 13:37:14;;;;;;;1.08;1.08;;;;;;;;;;5065810;28;20297;-70
2022/08/24 13:40:00;;;;;;;1.40;1.30;;;;;;;;;;5071635;28;20301;-70
2022/08/24 13:42:31;;;;;;;0.98;0.98;;;;;;;;;;5063272;28;20207;-71
2022/08/24 13:45:12;;;;;;;1.35;1.17;;;;;;;;;;5064098;28;20207;-70
2022/08/24 13:47:51;;;;;;;1.33;1.33;;;;;;;;;;5058845;28;20213;-70
2022/08/24 13:50:29;;;;;;;1.10;1.10;;;;;;;;;;5069050;28;20234;-71
2022/08/24 13:53:04;;;;;;;1.25;1.25;;;;;;;;;;5060291;28;20207;-73
2022/08/24 13:55:34;;;;;;;1.25;1.20;;;;;;;;;;5057509;28;20207;-74
2022/08/24 13:58:10;;;;;;;1.20;1.20;;;;;;;;;;5051073;28;20268;-73
2022/08/24 14:00:43;;;;;;;1.20;1.20;;;;;;;;;;5051064;28;20214;-72
2022/08/24 14:03:14;;;;;;;1.45;1.35;;;;;;;;;;5057747;28;20983;-72
2022/08/24 14:05:43;;;;;;;1.15;1.15;;;;;;;;;;5069759;28;20203;-71
2022/08/24 14:08:20;;;;;;;2.47;1.38;;;;;;;;;;5068987;28;20206;-71
2022/08/24 14:10:53;;;;;;;1.00;1.00;;;;;;;;;;5058659;28;20249;-71
2022/08/24 14:13:29;;;;;;;1.15;1.15;;;;;;;;;;5063626;28;20214;-70
2022/08/24 14:18:46;;;;;;;1.10;1.10;;;;;;;;;;5050110;28;20310;-71
2022/08/24 14:21:14;;;;;;;1.40;1.40;;;;;;;;;;5064337;28;20245;-71
2022/08/24 14:23:51;;;;;;;1.17;1.17;;;;;;;;;;5058821;28;20206;-69
2022/08/24 14:26:38;;;;;;;1.38;1.30;;;;;;;;;;5069497;28;20206;-69
2022/08/24 14:29:24;;;;;;;0.98;0.98;;;;;;;;;;5069685;28;20256;-69
2022/08/24 14:32:06;;;;;;;1.50;1.50;;;;;;;;;;5070291;28;20213;-68
2022/08/24 14:34:36;;;;;;;1.10;1.10;;;;;;;;;;5058227;28;20211;-68
2022/08/24 14:37:06;;;;;;;1.10;1.10;;;;;;;;;;5067573;28;20209;-68
2022/08/24 14:39:37;;;;;;;1.20;1.17;;;;;;;;;;5054140;28;20254;-70
2022/08/24 14:42:10;;;;;;;1.95;1.50;;;;;;;;;;5058100;28;20203;-70
2022/08/24 14:44:55;;;;;;;1.15;1.15;;;;;;;;;;5061942;28;20219;-69
2022/08/24 14:47:29;;;;;;;1.35;1.35;;;;;;;;;;5062555;28;20584;-68
2022/08/24 14:50:03;;;;;;;1.30;1.30;;;;;;;;;;5060736;28;20233;-68
2022/08/24 14:52:43;;;;;;;1.52;1.42;;;;;;;;;;5050802;28;20215;-68
2022/08/24 14:55:16;;;;;;;1.20;1.20;;;;;;;;;;5057623;28;20211;-68
2022/08/24 14:57:48;;;;;;;1.05;1.02;;;;;;;;;;5050205;28;20211;-69
2022/08/24 15:00:19;;;;;;;1.25;1.25;;;;;;;;;;5059838;28;20203;-69
2022/08/24 15:03:01;;;;;;;1.15;1.15;;;;;;;;;;5048779;28;20218;-68
2022/08/24 15:05:36;;;;;;;1.17;1.17;;;;;;;;;;5050615;28;20198;-68
2022/08/24 15:08:04;;;;;;;1.20;1.20;;;;;;;;;;5051609;28;20207;-65
2022/08/24 15:10:36;;;;;;;1.33;1.33;;;;;;;;;;5068214;28;20720;-68
2022/08/24 15:13:07;;;;;;;1.65;1.55;;;;;;;;;;5068952;28;20206;-67
2022/08/24 15:15:38;;;;;;;2.28;1.40;;;;;;;;;;5058164;28;20210;-68
2022/08/24 15:18:09;;;;;;;1.10;1.10;;;;;;;;;;5051365;28;20321;-68
2022/08/24 15:20:47;;;;;;;1.20;1.20;;;;;;;;;;5048546;28;20210;-68